sensor_id;sensor_type;location;lat;lon;timestamp;temperature;humidity
14727;DHT22;7454;51.256;8.176;2024-02-21T00:00:56;8.30;82.10
14727;DHT22;7454;51.256;8.176;2024-02-21T00:03:40;8.40;82.40
14727;DHT22;7454;51.256;8.176;2024-02-21T00:06:13;8.30;82.60
14727;DHT22;7454;51.256;8.176;2024-02-21T00:08:45;8.30;82.30
14727;DHT22;7454;51.256;8.176;2024-02-21T00:11:17;8.40;82.50
14727;DHT22;7454;51.256;8.176;2024-02-21T00:13:49;8.40;82.50
14727;DHT22;7454;51.256;8.176;2024-02-21T00:16:22;8.50;83.10
14727;DHT22;7454;51.256;8.176;2024-02-21T00:18:54;8.40;82.90
14727;DHT22;7454;51.256;8.176;2024-02-21T00:21:26;8.50;82.60
14727;DHT22;7454;51.256;8.176;2024-02-21T00:23:51;8.50;82.70
14727;DHT22;7454;51.256;8.176;2024-02-21T00:26:24;8.40;81.90
14727;DHT22;7454;51.256;8.176;2024-02-21T00:28:58;8.40;82.50
14727;DHT22;7454;51.256;8.176;2024-02-21T00:31:30;8.30;82.30
14727;DHT22;7454;51.256;8.176;2024-02-21T00:34:02;8.40;82.80
14727;DHT22;7454;51.256;8.176;2024-02-21T00:36:34;8.40;82.50
14727;DHT22;7454;51.256;8.176;2024-02-21T00:39:06;8.40;83.10
14727;DHT22;7454;51.256;8.176;2024-02-21T00:41:38;8.40;82.50
14727;DHT22;7454;51.256;8.176;2024-02-21T00:44:10;8.40;81.90
14727;DHT22;7454;51.256;8.176;2024-02-21T00:46:42;8.40;82.80
14727;DHT22;7454;51.256;8.176;2024-02-21T00:49:14;8.40;82.60
14727;DHT22;7454;51.256;8.176;2024-02-21T00:51:46;8.50;83.10
14727;DHT22;7454;51.256;8.176;2024-02-21T00:54:19;8.40;82.90
14727;DHT22;7454;51.256;8.176;2024-02-21T00:56:44;8.50;83.00
14727;DHT22;7454;51.256;8.176;2024-02-21T00:59:17;8.40;82.90
14727;DHT22;7454;51.256;8.176;2024-02-21T01:01:50;8.40;83.20
14727;DHT22;7454;51.256;8.176;2024-02-21T01:04:22;8.50;82.70
14727;DHT22;7454;51.256;8.176;2024-02-21T01:06:56;8.50;83.20
14727;DHT22;7454;51.256;8.176;2024-02-21T01:09:28;8.50;83.50
14727;DHT22;7454;51.256;8.176;2024-02-21T01:12:00;8.60;83.80
14727;DHT22;7454;51.256;8.176;2024-02-21T01:14:32;8.60;84.00
14727;DHT22;7454;51.256;8.176;2024-02-21T01:17:04;8.60;83.60
14727;DHT22;7454;51.256;8.176;2024-02-21T01:19:38;8.60;83.10
14727;DHT22;7454;51.256;8.176;2024-02-21T01:22:10;8.70;83.50
14727;DHT22;7454;51.256;8.176;2024-02-21T01:24:42;8.70;83.30
14727;DHT22;7454;51.256;8.176;2024-02-21T01:27:14;8.60;83.20
14727;DHT22;7454;51.256;8.176;2024-02-21T01:29:46;8.60;83.00
14727;DHT22;7454;51.256;8.176;2024-02-21T01:32:19;8.70;83.90
14727;DHT22;7454;51.256;8.176;2024-02-21T01:34:51;8.70;83.60
14727;DHT22;7454;51.256;8.176;2024-02-21T01:37:23;8.70;83.70
14727;DHT22;7454;51.256;8.176;2024-02-21T01:40:09;8.70;83.40
14727;DHT22;7454;51.256;8.176;2024-02-21T01:42:42;8.70;83.00
14727;DHT22;7454;51.256;8.176;2024-02-21T01:45:14;8.70;83.90
14727;DHT22;7454;51.256;8.176;2024-02-21T01:47:46;8.80;84.10
14727;DHT22;7454;51.256;8.176;2024-02-21T01:50:18;8.70;83.90
14727;DHT22;7454;51.256;8.176;2024-02-21T01:52:50;8.70;83.80
14727;DHT22;7454;51.256;8.176;2024-02-21T01:55:22;8.80;83.80
14727;DHT22;7454;51.256;8.176;2024-02-21T01:57:55;8.70;83.20
14727;DHT22;7454;51.256;8.176;2024-02-21T02:00:21;8.80;83.80
14727;DHT22;7454;51.256;8.176;2024-02-21T02:02:54;8.80;83.80
14727;DHT22;7454;51.256;8.176;2024-02-21T02:05:27;8.80;84.10
14727;DHT22;7454;51.256;8.176;2024-02-21T02:07:59;8.80;83.90
14727;DHT22;7454;51.256;8.176;2024-02-21T02:10:31;8.80;83.60
14727;DHT22;7454;51.256;8.176;2024-02-21T02:13:07;8.80;83.50
14727;DHT22;7454;51.256;8.176;2024-02-21T02:15:42;8.70;83.50
14727;DHT22;7454;51.256;8.176;2024-02-21T02:18:16;8.80;83.30
14727;DHT22;7454;51.256;8.176;2024-02-21T02:20:49;8.80;82.70
14727;DHT22;7454;51.256;8.176;2024-02-21T02:23:30;8.80;83.90
14727;DHT22;7454;51.256;8.176;2024-02-21T02:26:05;8.80;83.70
14727;DHT22;7454;51.256;8.176;2024-02-21T02:28:39;8.70;83.50
14727;DHT22;7454;51.256;8.176;2024-02-21T02:31:11;8.80;84.10
14727;DHT22;7454;51.256;8.176;2024-02-21T02:33:36;8.80;84.10
14727;DHT22;7454;51.256;8.176;2024-02-21T02:36:09;8.80;83.80
14727;DHT22;7454;51.256;8.176;2024-02-21T02:38:41;8.70;83.90
14727;DHT22;7454;51.256;8.176;2024-02-21T02:41:20;8.90;84.00
14727;DHT22;7454;51.256;8.176;2024-02-21T02:43:52;8.80;84.20
14727;DHT22;7454;51.256;8.176;2024-02-21T02:46:24;8.80;83.70
14727;DHT22;7454;51.256;8.176;2024-02-21T02:48:56;8.80;83.90
14727;DHT22;7454;51.256;8.176;2024-02-21T02:51:28;8.80;83.80
14727;DHT22;7454;51.256;8.176;2024-02-21T02:54:00;8.80;84.00
14727;DHT22;7454;51.256;8.176;2024-02-21T02:56:32;8.80;83.30
14727;DHT22;7454;51.256;8.176;2024-02-21T02:59:04;8.80;83.80
14727;DHT22;7454;51.256;8.176;2024-02-21T03:01:36;8.80;83.90
14727;DHT22;7454;51.256;8.176;2024-02-21T03:04:01;8.90;83.70
14727;DHT22;7454;51.256;8.176;2024-02-21T03:06:34;8.80;83.90
14727;DHT22;7454;51.256;8.176;2024-02-21T03:09:06;8.80;83.60
14727;DHT22;7454;51.256;8.176;2024-02-21T03:11:40;8.80;83.40
14727;DHT22;7454;51.256;8.176;2024-02-21T03:14:15;8.80;83.60
14727;DHT22;7454;51.256;8.176;2024-02-21T03:16:47;8.80;83.70
14727;DHT22;7454;51.256;8.176;2024-02-21T03:19:19;8.80;83.50
14727;DHT22;7454;51.256;8.176;2024-02-21T03:21:44;8.80;83.40
14727;DHT22;7454;51.256;8.176;2024-02-21T03:24:18;8.80;83.30
14727;DHT22;7454;51.256;8.176;2024-02-21T03:26:50;8.80;83.20
14727;DHT22;7454;51.256;8.176;2024-02-21T03:29:22;8.80;83.90
14727;DHT22;7454;51.256;8.176;2024-02-21T03:31:54;8.80;83.50
14727;DHT22;7454;51.256;8.176;2024-02-21T03:34:26;8.80;83.40
14727;DHT22;7454;51.256;8.176;2024-02-21T03:36:58;8.80;82.70
14727;DHT22;7454;51.256;8.176;2024-02-21T03:39:31;8.70;82.50
14727;DHT22;7454;51.256;8.176;2024-02-21T03:42:04;8.70;82.80
14727;DHT22;7454;51.256;8.176;2024-02-21T03:44:36;8.70;83.10
14727;DHT22;7454;51.256;8.176;2024-02-21T03:47:02;8.60;83.00
14727;DHT22;7454;51.256;8.176;2024-02-21T03:49:34;8.60;83.00
14727;DHT22;7454;51.256;8.176;2024-02-21T03:52:06;8.70;83.20
14727;DHT22;7454;51.256;8.176;2024-02-21T03:54:38;8.60;83.00
14727;DHT22;7454;51.256;8.176;2024-02-21T03:57:10;8.60;82.10
14727;DHT22;7454;51.256;8.176;2024-02-21T03:59:42;8.50;83.00
14727;DHT22;7454;51.256;8.176;2024-02-21T04:02:14;8.60;83.20
14727;DHT22;7454;51.256;8.176;2024-02-21T04:04:46;8.60;82.60
14727;DHT22;7454;51.256;8.176;2024-02-21T04:07:19;8.50;82.50
14727;DHT22;7454;51.256;8.176;2024-02-21T04:09:51;8.60;83.10
14727;DHT22;7454;51.256;8.176;2024-02-21T04:12:23;8.60;83.40
14727;DHT22;7454;51.256;8.176;2024-02-21T04:14:55;8.60;83.30
14727;DHT22;7454;51.256;8.176;2024-02-21T04:17:27;8.60;82.90
14727;DHT22;7454;51.256;8.176;2024-02-21T04:20:03;8.70;83.20
14727;DHT22;7454;51.256;8.176;2024-02-21T04:22:45;8.60;83.20
14727;DHT22;7454;51.256;8.176;2024-02-21T04:25:18;8.60;83.40
14727;DHT22;7454;51.256;8.176;2024-02-21T04:27:51;8.60;83.00
14727;DHT22;7454;51.256;8.176;2024-02-21T04:30:16;8.60;82.70
14727;DHT22;7454;51.256;8.176;2024-02-21T04:32:49;8.60;83.00
14727;DHT22;7454;51.256;8.176;2024-02-21T04:35:24;8.70;83.00
14727;DHT22;7454;51.256;8.176;2024-02-21T04:37:49;8.60;82.50
14727;DHT22;7454;51.256;8.176;2024-02-21T04:40:27;8.50;82.40
14727;DHT22;7454;51.256;8.176;2024-02-21T04:43:00;8.60;83.20
14727;DHT22;7454;51.256;8.176;2024-02-21T04:45:32;8.60;83.20
14727;DHT22;7454;51.256;8.176;2024-02-21T04:48:04;8.50;82.00
14727;DHT22;7454;51.256;8.176;2024-02-21T04:50:36;8.50;83.10
14727;DHT22;7454;51.256;8.176;2024-02-21T04:53:08;8.50;82.40
14727;DHT22;7454;51.256;8.176;2024-02-21T04:55:40;8.50;82.50
14727;DHT22;7454;51.256;8.176;2024-02-21T04:58:12;8.50;83.30
14727;DHT22;7454;51.256;8.176;2024-02-21T05:00:37;8.70;83.60
14727;DHT22;7454;51.256;8.176;2024-02-21T05:03:10;8.60;83.10
14727;DHT22;7454;51.256;8.176;2024-02-21T05:05:36;8.60;83.60
14727;DHT22;7454;51.256;8.176;2024-02-21T05:08:09;8.70;83.40
14727;DHT22;7454;51.256;8.176;2024-02-21T05:10:42;8.70;83.70
14727;DHT22;7454;51.256;8.176;2024-02-21T05:13:14;8.70;83.40
14727;DHT22;7454;51.256;8.176;2024-02-21T05:15:47;8.70;83.30
14727;DHT22;7454;51.256;8.176;2024-02-21T05:18:20;8.80;83.60
14727;DHT22;7454;51.256;8.176;2024-02-21T05:20:52;8.70;83.20
14727;DHT22;7454;51.256;8.176;2024-02-21T05:23:24;8.70;83.10
14727;DHT22;7454;51.256;8.176;2024-02-21T05:25:56;8.80;83.60
14727;DHT22;7454;51.256;8.176;2024-02-21T05:28:28;8.70;83.00
14727;DHT22;7454;51.256;8.176;2024-02-21T05:31:00;8.80;83.40
14727;DHT22;7454;51.256;8.176;2024-02-21T05:33:32;8.80;83.20
14727;DHT22;7454;51.256;8.176;2024-02-21T05:36:04;8.80;83.30
14727;DHT22;7454;51.256;8.176;2024-02-21T05:38:37;8.70;83.10
14727;DHT22;7454;51.256;8.176;2024-02-21T05:41:16;8.80;83.10
14727;DHT22;7454;51.256;8.176;2024-02-21T05:43:48;8.70;83.00
14727;DHT22;7454;51.256;8.176;2024-02-21T05:46:20;8.70;83.40
14727;DHT22;7454;51.256;8.176;2024-02-21T05:48:52;8.70;83.10
14727;DHT22;7454;51.256;8.176;2024-02-21T05:51:24;8.70;83.00
14727;DHT22;7454;51.256;8.176;2024-02-21T05:53:56;8.70;82.90
14727;DHT22;7454;51.256;8.176;2024-02-21T05:56:28;8.70;82.40
14727;DHT22;7454;51.256;8.176;2024-02-21T05:59:00;8.70;83.10
14727;DHT22;7454;51.256;8.176;2024-02-21T06:01:32;8.60;83.10
14727;DHT22;7454;51.256;8.176;2024-02-21T06:04:04;8.70;83.30
14727;DHT22;7454;51.256;8.176;2024-02-21T06:06:36;8.70;83.10
14727;DHT22;7454;51.256;8.176;2024-02-21T06:09:08;8.60;82.80
14727;DHT22;7454;51.256;8.176;2024-02-21T06:11:40;8.60;82.50
14727;DHT22;7454;51.256;8.176;2024-02-21T06:14:12;8.60;82.80
14727;DHT22;7454;51.256;8.176;2024-02-21T06:16:37;8.60;82.80
14727;DHT22;7454;51.256;8.176;2024-02-21T06:19:10;8.70;83.10
14727;DHT22;7454;51.256;8.176;2024-02-21T06:21:42;8.60;82.40
14727;DHT22;7454;51.256;8.176;2024-02-21T06:24:14;8.60;82.90
14727;DHT22;7454;51.256;8.176;2024-02-21T06:26:47;8.70;83.30
14727;DHT22;7454;51.256;8.176;2024-02-21T06:29:19;8.60;82.60
14727;DHT22;7454;51.256;8.176;2024-02-21T06:31:44;8.70;83.40
14727;DHT22;7454;51.256;8.176;2024-02-21T06:34:17;8.70;83.10
14727;DHT22;7454;51.256;8.176;2024-02-21T06:36:56;8.70;83.00
14727;DHT22;7454;51.256;8.176;2024-02-21T06:39:28;8.60;82.60
14727;DHT22;7454;51.256;8.176;2024-02-21T06:42:09;8.60;83.00
14727;DHT22;7454;51.256;8.176;2024-02-21T06:44:41;8.70;83.50
14727;DHT22;7454;51.256;8.176;2024-02-21T06:47:06;8.80;83.50
14727;DHT22;7454;51.256;8.176;2024-02-21T06:49:40;8.70;83.10
14727;DHT22;7454;51.256;8.176;2024-02-21T06:52:19;8.70;83.30
14727;DHT22;7454;51.256;8.176;2024-02-21T06:54:55;8.80;83.50
14727;DHT22;7454;51.256;8.176;2024-02-21T06:57:28;8.80;83.10
14727;DHT22;7454;51.256;8.176;2024-02-21T06:59:54;8.70;82.80
14727;DHT22;7454;51.256;8.176;2024-02-21T07:02:26;8.80;83.50
14727;DHT22;7454;51.256;8.176;2024-02-21T07:04:58;8.70;83.20
14727;DHT22;7454;51.256;8.176;2024-02-21T07:07:30;8.80;83.20
14727;DHT22;7454;51.256;8.176;2024-02-21T07:10:02;8.80;82.30
14727;DHT22;7454;51.256;8.176;2024-02-21T07:12:36;8.80;83.10
14727;DHT22;7454;51.256;8.176;2024-02-21T07:15:10;8.70;83.10
14727;DHT22;7454;51.256;8.176;2024-02-21T07:17:42;8.80;83.10
14727;DHT22;7454;51.256;8.176;2024-02-21T07:20:08;8.80;83.20
14727;DHT22;7454;51.256;8.176;2024-02-21T07:22:40;8.80;83.40
14727;DHT22;7454;51.256;8.176;2024-02-21T07:25:12;8.80;83.40
14727;DHT22;7454;51.256;8.176;2024-02-21T07:27:44;8.90;83.60
14727;DHT22;7454;51.256;8.176;2024-02-21T07:30:16;8.80;83.00
14727;DHT22;7454;51.256;8.176;2024-02-21T07:32:51;8.80;82.10
14727;DHT22;7454;51.256;8.176;2024-02-21T07:35:23;8.80;83.00
14727;DHT22;7454;51.256;8.176;2024-02-21T07:38:02;8.80;83.00
14727;DHT22;7454;51.256;8.176;2024-02-21T07:40:35;8.90;83.20
14727;DHT22;7454;51.256;8.176;2024-02-21T07:43:07;8.80;82.90
14727;DHT22;7454;51.256;8.176;2024-02-21T07:45:39;8.80;82.90
14727;DHT22;7454;51.256;8.176;2024-02-21T07:48:12;8.90;82.90
14727;DHT22;7454;51.256;8.176;2024-02-21T07:50:44;8.90;83.20
14727;DHT22;7454;51.256;8.176;2024-02-21T07:53:10;8.90;83.00
14727;DHT22;7454;51.256;8.176;2024-02-21T07:55:42;8.90;83.00
14727;DHT22;7454;51.256;8.176;2024-02-21T07:58:14;8.90;82.50
14727;DHT22;7454;51.256;8.176;2024-02-21T08:00:46;8.80;82.70
14727;DHT22;7454;51.256;8.176;2024-02-21T08:03:18;8.90;83.00
14727;DHT22;7454;51.256;8.176;2024-02-21T08:05:50;8.90;82.80
14727;DHT22;7454;51.256;8.176;2024-02-21T08:08:22;8.80;82.00
14727;DHT22;7454;51.256;8.176;2024-02-21T08:10:54;8.90;82.30
14727;DHT22;7454;51.256;8.176;2024-02-21T08:13:33;8.90;83.30
14727;DHT22;7454;51.256;8.176;2024-02-21T08:16:05;8.90;82.00
14727;DHT22;7454;51.256;8.176;2024-02-21T08:18:37;9.00;82.70
14727;DHT22;7454;51.256;8.176;2024-02-21T08:21:04;8.90;82.50
14727;DHT22;7454;51.256;8.176;2024-02-21T08:23:36;8.90;82.10
14727;DHT22;7454;51.256;8.176;2024-02-21T08:26:08;8.90;82.50
14727;DHT22;7454;51.256;8.176;2024-02-21T08:28:47;8.90;82.20
14727;DHT22;7454;51.256;8.176;2024-02-21T08:31:19;8.90;82.10
14727;DHT22;7454;51.256;8.176;2024-02-21T08:34:02;8.90;82.60
14727;DHT22;7454;51.256;8.176;2024-02-21T08:36:35;9.00;82.20
14727;DHT22;7454;51.256;8.176;2024-02-21T08:39:15;9.00;82.80
14727;DHT22;7454;51.256;8.176;2024-02-21T08:41:50;9.00;82.70
14727;DHT22;7454;51.256;8.176;2024-02-21T08:44:23;9.00;82.20
14727;DHT22;7454;51.256;8.176;2024-02-21T08:46:58;9.00;82.20
14727;DHT22;7454;51.256;8.176;2024-02-21T08:49:30;9.00;82.60
14727;DHT22;7454;51.256;8.176;2024-02-21T08:51:56;9.10;82.40
14727;DHT22;7454;51.256;8.176;2024-02-21T08:54:28;9.10;82.60
14727;DHT22;7454;51.256;8.176;2024-02-21T08:57:04;9.10;82.30
14727;DHT22;7454;51.256;8.176;2024-02-21T08:59:33;9.10;82.50
14727;DHT22;7454;51.256;8.176;2024-02-21T09:02:05;9.10;82.40
14727;DHT22;7454;51.256;8.176;2024-02-21T09:04:39;9.20;82.80
14727;DHT22;7454;51.256;8.176;2024-02-21T09:07:11;9.20;82.70
14727;DHT22;7454;51.256;8.176;2024-02-21T09:09:43;9.20;82.10
14727;DHT22;7454;51.256;8.176;2024-02-21T09:12:16;9.20;82.20
14727;DHT22;7454;51.256;8.176;2024-02-21T09:14:48;9.20;82.60
14727;DHT22;7454;51.256;8.176;2024-02-21T09:17:22;9.20;82.20
14727;DHT22;7454;51.256;8.176;2024-02-21T09:19:54;9.30;82.40
14727;DHT22;7454;51.256;8.176;2024-02-21T09:22:27;9.30;82.30
14727;DHT22;7454;51.256;8.176;2024-02-21T09:25:00;9.30;82.30
14727;DHT22;7454;51.256;8.176;2024-02-21T09:27:32;9.30;82.30
14727;DHT22;7454;51.256;8.176;2024-02-21T09:30:05;9.40;82.20
14727;DHT22;7454;51.256;8.176;2024-02-21T09:32:38;9.40;82.40
14727;DHT22;7454;51.256;8.176;2024-02-21T09:35:10;9.40;82.40
14727;DHT22;7454;51.256;8.176;2024-02-21T09:37:42;9.30;81.90
14727;DHT22;7454;51.256;8.176;2024-02-21T09:40:15;9.40;82.10
14727;DHT22;7454;51.256;8.176;2024-02-21T09:43:12;9.30;82.20
14727;DHT22;7454;51.256;8.176;2024-02-21T09:45:49;9.40;82.20
14727;DHT22;7454;51.256;8.176;2024-02-21T09:48:48;9.40;82.00
14727;DHT22;7454;51.256;8.176;2024-02-21T09:51:17;9.40;81.80
14727;DHT22;7454;51.256;8.176;2024-02-21T09:53:50;9.40;81.60
14727;DHT22;7454;51.256;8.176;2024-02-21T09:56:22;9.30;82.10
14727;DHT22;7454;51.256;8.176;2024-02-21T09:58:54;9.40;82.10
14727;DHT22;7454;51.256;8.176;2024-02-21T10:01:27;9.50;82.40
14727;DHT22;7454;51.256;8.176;2024-02-21T10:03:59;9.50;82.10
14727;DHT22;7454;51.256;8.176;2024-02-21T10:06:31;9.50;82.20
14727;DHT22;7454;51.256;8.176;2024-02-21T10:09:05;9.50;81.90
14727;DHT22;7454;51.256;8.176;2024-02-21T10:11:38;9.50;82.00
14727;DHT22;7454;51.256;8.176;2024-02-21T10:14:11;9.50;82.10
14727;DHT22;7454;51.256;8.176;2024-02-21T10:16:44;9.50;81.80
14727;DHT22;7454;51.256;8.176;2024-02-21T10:19:18;9.50;82.00
14727;DHT22;7454;51.256;8.176;2024-02-21T10:22:00;9.60;82.30
14727;DHT22;7454;51.256;8.176;2024-02-21T10:24:41;9.50;82.10
14727;DHT22;7454;51.256;8.176;2024-02-21T10:27:14;9.50;82.20
14727;DHT22;7454;51.256;8.176;2024-02-21T10:29:48;9.50;81.80
14727;DHT22;7454;51.256;8.176;2024-02-21T10:32:22;9.40;82.10
14727;DHT22;7454;51.256;8.176;2024-02-21T10:35:01;9.40;81.80
14727;DHT22;7454;51.256;8.176;2024-02-21T10:37:41;9.40;81.80
14727;DHT22;7454;51.256;8.176;2024-02-21T10:40:13;9.40;82.10
14727;DHT22;7454;51.256;8.176;2024-02-21T10:42:57;9.50;82.40
14727;DHT22;7454;51.256;8.176;2024-02-21T10:45:36;9.40;82.10
14727;DHT22;7454;51.256;8.176;2024-02-21T10:56:31;9.60;81.80
14727;DHT22;7454;51.256;8.176;2024-02-21T10:59:07;9.60;82.00
14727;DHT22;7454;51.256;8.176;2024-02-21T11:01:39;9.70;82.20
14727;DHT22;7454;51.256;8.176;2024-02-21T11:04:11;9.60;81.70
14727;DHT22;7454;51.256;8.176;2024-02-21T11:06:43;9.70;82.10
14727;DHT22;7454;51.256;8.176;2024-02-21T11:09:16;9.70;82.00
14727;DHT22;7454;51.256;8.176;2024-02-21T11:11:49;9.60;82.00
14727;DHT22;7454;51.256;8.176;2024-02-21T11:14:21;9.60;81.90
14727;DHT22;7454;51.256;8.176;2024-02-21T11:16:54;9.70;82.10
14727;DHT22;7454;51.256;8.176;2024-02-21T11:19:28;9.70;82.10
14727;DHT22;7454;51.256;8.176;2024-02-21T11:22:00;9.80;82.10
14727;DHT22;7454;51.256;8.176;2024-02-21T11:24:33;9.90;81.90
14727;DHT22;7454;51.256;8.176;2024-02-21T11:29:44;9.80;81.60
14727;DHT22;7454;51.256;8.176;2024-02-21T11:32:10;9.90;82.00
14727;DHT22;7454;51.256;8.176;2024-02-21T11:34:54;10.00;82.10
14727;DHT22;7454;51.256;8.176;2024-02-21T11:37:34;10.00;81.50
14727;DHT22;7454;51.256;8.176;2024-02-21T11:40:16;10.00;82.10
14727;DHT22;7454;51.256;8.176;2024-02-21T11:42:48;10.00;81.80
14727;DHT22;7454;51.256;8.176;2024-02-21T11:45:20;10.10;82.10
14727;DHT22;7454;51.256;8.176;2024-02-21T11:47:53;10.10;81.70
14727;DHT22;7454;51.256;8.176;2024-02-21T11:50:26;9.90;80.90
14727;DHT22;7454;51.256;8.176;2024-02-21T11:52:58;9.90;81.80
14727;DHT22;7454;51.256;8.176;2024-02-21T11:55:30;9.80;80.70
14727;DHT22;7454;51.256;8.176;2024-02-21T11:58:02;9.90;81.50
14727;DHT22;7454;51.256;8.176;2024-02-21T12:00:34;9.90;81.70
14727;DHT22;7454;51.256;8.176;2024-02-21T12:03:07;10.00;81.10
14727;DHT22;7454;51.256;8.176;2024-02-21T12:05:40;10.00;81.70
14727;DHT22;7454;51.256;8.176;2024-02-21T12:08:13;10.00;81.00
14727;DHT22;7454;51.256;8.176;2024-02-21T12:10:45;10.00;81.50
14727;DHT22;7454;51.256;8.176;2024-02-21T12:13:22;10.00;81.00
14727;DHT22;7454;51.256;8.176;2024-02-21T12:15:54;10.00;81.60
14727;DHT22;7454;51.256;8.176;2024-02-21T12:18:27;10.10;81.70
14727;DHT22;7454;51.256;8.176;2024-02-21T12:20:53;9.90;81.10
14727;DHT22;7454;51.256;8.176;2024-02-21T12:23:28;9.90;81.70
14727;DHT22;7454;51.256;8.176;2024-02-21T12:26:00;9.90;81.40
14727;DHT22;7454;51.256;8.176;2024-02-21T12:28:32;9.90;81.70
14727;DHT22;7454;51.256;8.176;2024-02-21T12:31:05;9.90;81.50
14727;DHT22;7454;51.256;8.176;2024-02-21T12:33:37;9.80;81.10
14727;DHT22;7454;51.256;8.176;2024-02-21T12:36:09;9.90;81.50
14727;DHT22;7454;51.256;8.176;2024-02-21T12:38:41;9.90;81.60
14727;DHT22;7454;51.256;8.176;2024-02-21T12:41:27;9.90;81.50
14727;DHT22;7454;51.256;8.176;2024-02-21T12:44:07;9.90;81.60
14727;DHT22;7454;51.256;8.176;2024-02-21T12:46:33;10.00;81.60
14727;DHT22;7454;51.256;8.176;2024-02-21T12:49:06;10.00;81.70
14727;DHT22;7454;51.256;8.176;2024-02-21T12:51:41;10.00;81.60
14727;DHT22;7454;51.256;8.176;2024-02-21T12:54:13;10.10;81.60
14727;DHT22;7454;51.256;8.176;2024-02-21T12:56:39;10.10;81.70
14727;DHT22;7454;51.256;8.176;2024-02-21T12:59:14;10.10;81.40
14727;DHT22;7454;51.256;8.176;2024-02-21T13:01:46;10.00;80.80
14727;DHT22;7454;51.256;8.176;2024-02-21T13:04:18;10.00;81.30
14727;DHT22;7454;51.256;8.176;2024-02-21T13:06:50;10.00;81.40
14727;DHT22;7454;51.256;8.176;2024-02-21T13:09:22;10.00;81.30
14727;DHT22;7454;51.256;8.176;2024-02-21T13:11:54;10.10;81.60
14727;DHT22;7454;51.256;8.176;2024-02-21T13:14:26;10.10;81.30
14727;DHT22;7454;51.256;8.176;2024-02-21T13:16:59;10.10;81.40
14727;DHT22;7454;51.256;8.176;2024-02-21T13:19:31;10.10;81.60
14727;DHT22;7454;51.256;8.176;2024-02-21T13:21:57;10.20;81.50
14727;DHT22;7454;51.256;8.176;2024-02-21T13:24:30;10.30;81.70
14727;DHT22;7454;51.256;8.176;2024-02-21T13:27:02;10.30;81.50
14727;DHT22;7454;51.256;8.176;2024-02-21T13:29:35;10.30;81.60
14727;DHT22;7454;51.256;8.176;2024-02-21T13:32:07;10.30;81.50
14727;DHT22;7454;51.256;8.176;2024-02-21T13:34:39;10.30;81.40
14727;DHT22;7454;51.256;8.176;2024-02-21T13:37:11;10.40;81.70
14727;DHT22;7454;51.256;8.176;2024-02-21T13:39:52;10.40;81.50
14727;DHT22;7454;51.256;8.176;2024-02-21T13:42:24;10.40;81.60
14727;DHT22;7454;51.256;8.176;2024-02-21T13:44:59;10.40;81.40
14727;DHT22;7454;51.256;8.176;2024-02-21T13:47:34;10.40;81.40
14727;DHT22;7454;51.256;8.176;2024-02-21T13:50:08;10.40;81.00
14727;DHT22;7454;51.256;8.176;2024-02-21T13:52:54;10.40;81.40
14727;DHT22;7454;51.256;8.176;2024-02-21T13:55:26;10.40;81.50
14727;DHT22;7454;51.256;8.176;2024-02-21T13:57:52;10.40;81.60
14727;DHT22;7454;51.256;8.176;2024-02-21T14:00:24;10.40;81.60
14727;DHT22;7454;51.256;8.176;2024-02-21T14:02:56;10.50;81.20
14727;DHT22;7454;51.256;8.176;2024-02-21T14:05:30;10.40;81.30
14727;DHT22;7454;51.256;8.176;2024-02-21T14:08:02;10.50;81.60
14727;DHT22;7454;51.256;8.176;2024-02-21T14:10:34;10.40;81.10
14727;DHT22;7454;51.256;8.176;2024-02-21T14:13:13;10.50;81.40
14727;DHT22;7454;51.256;8.176;2024-02-21T14:15:45;10.40;81.10
14727;DHT22;7454;51.256;8.176;2024-02-21T14:18:17;10.40;80.90
14727;DHT22;7454;51.256;8.176;2024-02-21T14:20:49;10.30;80.90
14727;DHT22;7454;51.256;8.176;2024-02-21T14:23:21;10.40;81.40
14727;DHT22;7454;51.256;8.176;2024-02-21T14:25:53;10.30;81.20
14727;DHT22;7454;51.256;8.176;2024-02-21T14:28:25;10.30;81.40
14727;DHT22;7454;51.256;8.176;2024-02-21T14:30:57;10.40;81.40
14727;DHT22;7454;51.256;8.176;2024-02-21T14:33:29;10.40;81.20
14727;DHT22;7454;51.256;8.176;2024-02-21T14:36:04;10.40;81.30
14727;DHT22;7454;51.256;8.176;2024-02-21T14:38:37;10.30;81.30
14727;DHT22;7454;51.256;8.176;2024-02-21T14:41:23;10.30;81.30
14727;DHT22;7454;51.256;8.176;2024-02-21T14:43:56;10.30;81.30
14727;DHT22;7454;51.256;8.176;2024-02-21T14:46:31;10.20;81.30
14727;DHT22;7454;51.256;8.176;2024-02-21T14:49:04;10.20;81.10
14727;DHT22;7454;51.256;8.176;2024-02-21T14:51:36;10.20;80.90
14727;DHT22;7454;51.256;8.176;2024-02-21T14:54:08;10.20;81.20
14727;DHT22;7454;51.256;8.176;2024-02-21T14:56:40;10.20;81.10
14727;DHT22;7454;51.256;8.176;2024-02-21T14:59:12;10.20;81.30
14727;DHT22;7454;51.256;8.176;2024-02-21T15:01:44;10.20;81.30
14727;DHT22;7454;51.256;8.176;2024-02-21T15:04:16;10.10;81.20
14727;DHT22;7454;51.256;8.176;2024-02-21T15:06:42;10.20;81.10
14727;DHT22;7454;51.256;8.176;2024-02-21T15:09:16;10.10;81.20
14727;DHT22;7454;51.256;8.176;2024-02-21T15:11:50;10.20;81.20
14727;DHT22;7454;51.256;8.176;2024-02-21T15:14:22;10.20;81.20
14727;DHT22;7454;51.256;8.176;2024-02-21T15:16:54;10.20;81.30
14727;DHT22;7454;51.256;8.176;2024-02-21T15:19:29;10.10;81.20
14727;DHT22;7454;51.256;8.176;2024-02-21T15:22:01;10.20;81.30
14727;DHT22;7454;51.256;8.176;2024-02-21T15:24:34;10.20;81.20
14727;DHT22;7454;51.256;8.176;2024-02-21T15:27:06;10.00;81.00
14727;DHT22;7454;51.256;8.176;2024-02-21T15:29:39;10.00;81.20
14727;DHT22;7454;51.256;8.176;2024-02-21T15:32:11;10.00;81.10
14727;DHT22;7454;51.256;8.176;2024-02-21T15:34:43;10.00;80.30
14727;DHT22;7454;51.256;8.176;2024-02-21T15:37:15;9.90;81.00
14727;DHT22;7454;51.256;8.176;2024-02-21T15:39:47;10.00;81.20
14727;DHT22;7454;51.256;8.176;2024-02-21T15:42:26;9.90;80.70
14727;DHT22;7454;51.256;8.176;2024-02-21T15:44:59;9.90;80.90
14727;DHT22;7454;51.256;8.176;2024-02-21T15:47:38;9.80;80.70
14727;DHT22;7454;51.256;8.176;2024-02-21T15:50:04;9.90;80.80
14727;DHT22;7454;51.256;8.176;2024-02-21T15:52:36;9.80;81.00
14727;DHT22;7454;51.256;8.176;2024-02-21T15:55:11;9.80;80.80
14727;DHT22;7454;51.256;8.176;2024-02-21T15:57:44;9.70;80.70
14727;DHT22;7454;51.256;8.176;2024-02-21T16:00:16;9.80;80.90
14727;DHT22;7454;51.256;8.176;2024-02-21T16:02:48;9.70;80.50
14727;DHT22;7454;51.256;8.176;2024-02-21T16:05:20;9.60;80.50
14727;DHT22;7454;51.256;8.176;2024-02-21T16:07:52;9.60;80.60
14727;DHT22;7454;51.256;8.176;2024-02-21T16:10:24;9.50;80.60
14727;DHT22;7454;51.256;8.176;2024-02-21T16:12:56;9.60;80.70
14727;DHT22;7454;51.256;8.176;2024-02-21T16:15:29;9.50;80.70
14727;DHT22;7454;51.256;8.176;2024-02-21T16:18:02;9.50;80.40
14727;DHT22;7454;51.256;8.176;2024-02-21T16:20:34;9.40;80.50
14727;DHT22;7454;51.256;8.176;2024-02-21T16:23:06;9.40;80.20
14727;DHT22;7454;51.256;8.176;2024-02-21T16:25:40;9.40;80.50
14727;DHT22;7454;51.256;8.176;2024-02-21T16:28:12;9.40;80.60
14727;DHT22;7454;51.256;8.176;2024-02-21T16:30:44;9.40;80.70
14727;DHT22;7454;51.256;8.176;2024-02-21T16:33:16;9.30;80.60
14727;DHT22;7454;51.256;8.176;2024-02-21T16:35:48;9.30;80.50
14727;DHT22;7454;51.256;8.176;2024-02-21T16:38:20;9.30;80.60
14727;DHT22;7454;51.256;8.176;2024-02-21T16:40:52;9.20;80.50
14727;DHT22;7454;51.256;8.176;2024-02-21T16:43:18;9.30;80.50